Terminal Aerodrome Forecast
Issued by NWS

Home | Current Version | Previous Version | Text Only | Print | Product List | Glossary On
Versions: 1 2 3 4 5 6 7 8 9 10 11 12 13 14 15 16 17 18 19 20
000
FTUS43 KGRR 010500
TAFLAN
TAF
KLAN 010540Z 0106/0206 04008KT 2SM -SN OVC015
     FM011000 04010G20KT 3/4SM -SN OVC008
     FM011600 06017G27KT 1/2SM SN BLSN VV004=

USA.gov is the U.S. government's official web portal to all federal, state and local government web resources and services.